createdAt,value
2017-07-19T00:00:16.072Z,18.29
2017-07-19T00:00:56.970Z,18.37
2017-07-19T00:01:37.858Z,18.23
2017-07-19T00:02:18.745Z,18.25
2017-07-19T00:02:59.637Z,18.25
2017-07-19T00:03:40.522Z,18.2
2017-07-19T00:04:21.413Z,18.22
2017-07-19T00:05:02.306Z,18.25
2017-07-19T00:05:43.209Z,18.22
2017-07-19T00:06:24.104Z,18.22
2017-07-19T00:07:04.995Z,18.26
2017-07-19T00:07:45.884Z,18.22
2017-07-19T00:08:26.774Z,18.18
2017-07-19T00:09:07.670Z,18.19
2017-07-19T00:09:48.563Z,18.19
2017-07-19T00:10:29.451Z,18.22
2017-07-19T00:11:10.351Z,18.13
2017-07-19T00:11:51.246Z,18.16
2017-07-19T00:12:32.120Z,18.18
2017-07-19T00:13:13.012Z,18.05
2017-07-19T00:13:53.905Z,18.19
2017-07-19T00:14:34.802Z,18.19
2017-07-19T00:15:15.690Z,18.23
2017-07-19T00:15:56.593Z,18.18
2017-07-19T00:16:37.482Z,18.15
2017-07-19T00:17:18.366Z,18.13
2017-07-19T00:17:59.264Z,18.11
2017-07-19T00:18:40.151Z,18.15
2017-07-19T00:19:21.039Z,18.08
2017-07-19T00:20:01.924Z,18.08
2017-07-19T00:20:42.810Z,18.08
2017-07-19T00:21:23.720Z,18.05
2017-07-19T00:22:04.610Z,18.05
2017-07-19T00:23:43.007Z,18.11
2017-07-19T00:24:23.896Z,18.13
2017-07-19T00:25:04.789Z,18.04
2017-07-19T00:25:45.687Z,18.03
2017-07-19T00:26:26.573Z,18.01
2017-07-19T00:27:07.464Z,18.03
2017-07-19T00:27:48.356Z,18.05
2017-07-19T00:28:29.250Z,18.08
2017-07-19T00:29:10.141Z,17.94
2017-07-19T00:29:51.030Z,17.87
2017-07-19T00:30:31.930Z,17.87
2017-07-19T00:31:12.833Z,18.01
2017-07-19T00:31:53.710Z,17.97
2017-07-19T00:32:34.606Z,17.89
2017-07-19T00:33:15.509Z,17.8
2017-07-19T00:33:56.396Z,17.82
2017-07-19T00:34:37.279Z,17.86
2017-07-19T00:35:18.188Z,17.89
2017-07-19T00:35:59.079Z,18.03
2017-07-19T00:36:39.970Z,17.97
2017-07-19T00:37:20.863Z,17.89
2017-07-19T00:38:01.750Z,17.92
2017-07-19T00:38:42.638Z,17.94
2017-07-19T00:39:23.534Z,17.85
2017-07-19T00:40:04.429Z,17.86
2017-07-19T00:40:45.324Z,17.8
2017-07-19T00:41:26.209Z,17.83
2017-07-19T00:42:07.091Z,17.87
2017-07-19T00:42:47.977Z,17.83
2017-07-19T00:43:28.867Z,17.89
2017-07-19T00:44:09.776Z,17.86
2017-07-19T00:44:50.659Z,17.86
2017-07-19T00:45:31.568Z,17.82
2017-07-19T00:46:12.452Z,17.83
2017-07-19T00:46:53.343Z,17.85
2017-07-19T00:47:34.242Z,17.83
2017-07-19T00:48:15.136Z,17.92
2017-07-19T00:48:56.033Z,17.89
2017-07-19T00:49:36.924Z,17.86
2017-07-19T00:50:17.817Z,17.82
2017-07-19T00:50:58.708Z,17.83
2017-07-19T00:51:39.595Z,17.8
2017-07-19T00:52:20.480Z,17.83
2017-07-19T00:53:01.370Z,17.82
2017-07-19T00:53:42.269Z,17.82
2017-07-19T00:54:23.163Z,17.8
2017-07-19T00:55:04.037Z,17.83
2017-07-19T00:55:44.941Z,17.8
2017-07-19T00:56:25.825Z,17.76
2017-07-19T00:57:06.708Z,17.74
2017-07-19T00:57:47.597Z,17.72
2017-07-19T00:58:28.501Z,17.79
2017-07-19T00:59:09.392Z,17.67
2017-07-19T00:59:50.317Z,17.67
2017-07-19T01:00:31.208Z,17.7
2017-07-19T01:01:12.094Z,17.72
2017-07-19T01:01:52.998Z,17.64
2017-07-19T01:02:33.888Z,17.74
2017-07-19T01:03:14.785Z,17.67
2017-07-19T01:03:55.675Z,17.67
2017-07-19T01:04:36.595Z,17.76
2017-07-19T01:05:17.492Z,17.57
2017-07-19T01:05:58.375Z,17.67
2017-07-19T01:06:39.258Z,17.59
2017-07-19T01:07:20.155Z,17.6
2017-07-19T01:08:01.045Z,17.67
2017-07-19T01:08:41.939Z,17.56
2017-07-19T01:09:22.829Z,17.63
2017-07-19T01:10:03.729Z,17.63
2017-07-19T01:10:44.609Z,17.63
2017-07-19T01:11:25.505Z,17.57
2017-07-19T01:12:06.393Z,17.63
2017-07-19T01:12:47.275Z,17.63
2017-07-19T01:13:28.164Z,17.63
2017-07-19T01:14:09.054Z,17.6
2017-07-19T01:14:49.943Z,17.63
2017-07-19T01:15:30.841Z,17.59
2017-07-19T01:16:11.728Z,17.56
2017-07-19T01:16:52.617Z,17.65
2017-07-19T01:17:33.513Z,17.63
2017-07-19T01:18:14.406Z,17.56
2017-07-19T01:18:55.289Z,17.64
2017-07-19T01:19:36.181Z,17.63
2017-07-19T01:20:17.081Z,17.63
2017-07-19T01:20:57.971Z,17.51
2017-07-19T01:21:38.888Z,17.6
2017-07-19T01:22:19.776Z,17.51
2017-07-19T01:23:00.659Z,17.57
2017-07-19T01:23:41.545Z,17.56
2017-07-19T01:24:22.435Z,17.57
2017-07-19T01:25:03.318Z,17.46
2017-07-19T01:25:44.219Z,17.57
2017-07-19T01:26:25.096Z,17.65
2017-07-19T01:27:05.982Z,17.63
2017-07-19T01:27:46.881Z,17.63
2017-07-19T01:28:27.759Z,17.57
2017-07-19T01:29:08.645Z,17.59
2017-07-19T01:29:49.529Z,17.56
2017-07-19T01:30:30.412Z,17.36
2017-07-19T01:31:11.306Z,17.41
2017-07-19T01:31:52.192Z,17.39
2017-07-19T01:32:33.077Z,17.36
2017-07-19T01:33:13.962Z,17.33
2017-07-19T01:33:54.850Z,17.42
2017-07-19T01:34:35.732Z,17.44
2017-07-19T01:35:16.612Z,17.38
2017-07-19T01:35:57.498Z,17.41
2017-07-19T01:36:38.385Z,17.36
2017-07-19T01:37:19.266Z,17.38
2017-07-19T01:38:00.174Z,17.52
2017-07-19T01:38:41.086Z,17.52
2017-07-19T01:39:21.964Z,17.39
2017-07-19T01:40:02.850Z,17.38
2017-07-19T01:40:43.736Z,17.33
2017-07-19T01:41:24.637Z,17.41
2017-07-19T01:42:05.525Z,17.31
2017-07-19T01:42:46.415Z,17.24
2017-07-19T01:43:27.308Z,17.34
2017-07-19T01:44:08.198Z,17.34
2017-07-19T01:44:49.092Z,17.41
2017-07-19T01:45:29.990Z,17.36
2017-07-19T01:46:10.879Z,17.27
2017-07-19T01:46:51.785Z,17.31
2017-07-19T01:47:32.665Z,17.26
2017-07-19T01:48:13.555Z,17.27
2017-07-19T01:48:54.447Z,17.29
2017-07-19T01:49:35.349Z,17.3
2017-07-19T01:50:16.236Z,17.24
2017-07-19T01:50:57.118Z,17.15
2017-07-19T01:51:38.009Z,17.26
2017-07-19T01:52:18.901Z,17.22
2017-07-19T01:52:59.797Z,17.26
2017-07-19T01:53:40.686Z,17.16
2017-07-19T01:54:21.578Z,17.33
2017-07-19T01:55:02.474Z,17.11
2017-07-19T01:55:43.368Z,17.22
2017-07-19T01:56:24.257Z,17.23
2017-07-19T01:57:05.142Z,17.23
2017-07-19T01:57:46.024Z,17.19
2017-07-19T01:58:26.917Z,17.16
2017-07-19T01:59:07.805Z,17.11
2017-07-19T01:59:48.701Z,17.09
2017-07-19T02:00:29.592Z,17.16
2017-07-19T02:01:10.480Z,17.15
2017-07-19T02:01:51.373Z,17.19
2017-07-19T02:02:32.266Z,17.09
2017-07-19T02:03:13.152Z,17.11
2017-07-19T02:03:54.040Z,17.06
2017-07-19T02:04:34.932Z,17.04
2017-07-19T02:05:15.845Z,17.19
2017-07-19T02:05:56.725Z,17.05
2017-07-19T02:06:37.610Z,17.05
2017-07-19T02:07:18.501Z,17.08
2017-07-19T02:07:59.393Z,17.06
2017-07-19T02:08:40.271Z,17.08
2017-07-19T02:09:21.155Z,17.01
2017-07-19T02:10:02.051Z,17.04
2017-07-19T02:10:42.938Z,17.08
2017-07-19T02:11:23.822Z,17.02
2017-07-19T02:12:04.714Z,17.05
2017-07-19T02:12:45.604Z,17.04
2017-07-19T02:13:26.492Z,17.06
2017-07-19T02:14:07.381Z,17.04
2017-07-19T02:14:48.269Z,17.09
2017-07-19T02:15:29.166Z,17.05
2017-07-19T02:16:10.047Z,17.06
2017-07-19T02:16:50.945Z,16.94
2017-07-19T02:17:31.832Z,16.99
2017-07-19T02:18:12.745Z,17.09
2017-07-19T02:18:53.616Z,17.01
2017-07-19T02:19:34.507Z,17.06
2017-07-19T02:20:15.401Z,17.04
2017-07-19T02:20:56.289Z,17.02
2017-07-19T02:21:37.168Z,17.05
2017-07-19T02:22:18.060Z,17.02
2017-07-19T02:22:58.952Z,16.97
2017-07-19T02:23:39.845Z,16.97
2017-07-19T02:24:20.732Z,16.89
2017-07-19T02:25:01.622Z,16.94
2017-07-19T02:25:42.517Z,17.06
2017-07-19T02:26:23.407Z,16.96
2017-07-19T02:27:04.363Z,16.96
2017-07-19T02:27:45.194Z,17.06
2017-07-19T02:28:26.086Z,16.96
2017-07-19T02:29:06.984Z,16.91
2017-07-19T02:29:47.863Z,16.86
2017-07-19T02:30:28.754Z,16.94
2017-07-19T02:31:09.646Z,16.97
2017-07-19T02:31:50.533Z,16.86
2017-07-19T02:32:31.417Z,16.94
2017-07-19T02:33:12.310Z,16.96
2017-07-19T02:33:53.205Z,16.94
2017-07-19T02:34:34.111Z,16.97
2017-07-19T02:35:14.985Z,16.94
2017-07-19T02:35:55.878Z,16.9
2017-07-19T02:36:36.778Z,16.86
2017-07-19T02:37:17.695Z,16.87
2017-07-19T02:37:58.585Z,16.87
2017-07-19T02:38:39.469Z,16.96
2017-07-19T02:39:20.353Z,16.9
2017-07-19T02:40:01.241Z,16.9
2017-07-19T02:40:42.133Z,16.9
2017-07-19T02:41:23.026Z,16.93
2017-07-19T02:42:03.920Z,16.9
2017-07-19T02:42:44.808Z,16.97
2017-07-19T02:43:25.691Z,16.96
2017-07-19T02:44:06.579Z,16.87
2017-07-19T02:44:47.476Z,16.81
2017-07-19T02:45:28.452Z,16.87
2017-07-19T02:46:09.249Z,16.87
2017-07-19T02:46:50.146Z,16.9
2017-07-19T02:47:31.035Z,16.9
2017-07-19T02:48:11.931Z,16.87
2017-07-19T02:48:52.828Z,16.91
2017-07-19T02:49:33.709Z,16.86
2017-07-19T02:50:14.622Z,16.93
2017-07-19T02:50:55.519Z,16.87
2017-07-19T02:51:36.408Z,16.81
2017-07-19T02:52:17.300Z,16.83
2017-07-19T02:52:58.184Z,16.83
2017-07-19T02:53:39.070Z,16.79
2017-07-19T02:54:19.964Z,16.83
2017-07-19T02:55:00.840Z,16.86
2017-07-19T02:55:41.730Z,16.84
2017-07-19T02:56:22.620Z,16.86
2017-07-19T02:57:03.509Z,16.91
2017-07-19T02:57:44.393Z,16.87
2017-07-19T02:58:25.276Z,16.91
2017-07-19T02:59:06.169Z,16.9
2017-07-19T02:59:47.064Z,16.84
2017-07-19T03:00:27.949Z,16.84
2017-07-19T03:01:08.839Z,16.9
2017-07-19T03:01:49.727Z,16.89
2017-07-19T03:02:30.614Z,16.87
2017-07-19T03:03:11.513Z,16.86
2017-07-19T03:03:52.414Z,16.79
2017-07-19T03:04:33.306Z,16.83
2017-07-19T03:06:11.799Z,16.75
2017-07-19T03:06:52.690Z,16.78
2017-07-19T03:07:33.579Z,16.76
2017-07-19T03:08:14.469Z,16.72
2017-07-19T03:08:55.365Z,16.86
2017-07-19T03:09:36.253Z,16.83
2017-07-19T03:10:17.140Z,16.78
2017-07-19T03:10:58.055Z,16.83
2017-07-19T03:11:38.949Z,16.81
2017-07-19T03:12:19.845Z,16.84
2017-07-19T03:13:00.736Z,16.75
2017-07-19T03:13:41.632Z,16.76
2017-07-19T03:14:22.521Z,16.83
2017-07-19T03:15:03.408Z,16.75
2017-07-19T03:15:44.293Z,16.75
2017-07-19T03:16:25.196Z,16.76
2017-07-19T03:17:06.083Z,16.76
2017-07-19T03:17:46.962Z,16.78
2017-07-19T03:18:27.871Z,16.83
2017-07-19T03:19:08.758Z,16.79
2017-07-19T03:19:49.644Z,16.87
2017-07-19T03:20:30.527Z,16.83
2017-07-19T03:21:11.420Z,16.86
2017-07-19T03:21:52.308Z,16.86
2017-07-19T03:22:33.189Z,16.81
2017-07-19T03:23:14.073Z,16.74
2017-07-19T03:23:54.966Z,16.75
2017-07-19T03:24:35.849Z,16.75
2017-07-19T03:25:16.736Z,16.72
2017-07-19T03:25:57.640Z,16.78
2017-07-19T03:26:38.530Z,16.84
2017-07-19T03:27:19.425Z,16.81
2017-07-19T03:28:00.318Z,16.84
2017-07-19T03:28:41.221Z,16.78
2017-07-19T03:29:22.109Z,16.83
2017-07-19T03:30:03.001Z,16.78
2017-07-19T03:30:43.887Z,16.83
2017-07-19T03:31:24.779Z,16.81
2017-07-19T03:32:05.672Z,16.76
2017-07-19T03:32:46.552Z,16.84
2017-07-19T03:33:27.437Z,16.84
2017-07-19T03:34:08.313Z,16.81
2017-07-19T03:34:49.206Z,16.76
2017-07-19T03:35:30.076Z,16.76
2017-07-19T03:36:10.951Z,16.78
2017-07-19T03:36:51.898Z,16.78
2017-07-19T03:37:32.773Z,16.75
2017-07-19T03:38:13.651Z,16.78
2017-07-19T03:38:54.537Z,16.81
2017-07-19T03:39:35.433Z,16.81
2017-07-19T03:40:16.318Z,16.79
2017-07-19T03:40:57.198Z,16.72
2017-07-19T03:41:38.088Z,16.83
2017-07-19T03:42:18.987Z,16.76
2017-07-19T03:42:59.935Z,16.75
2017-07-19T03:43:40.818Z,16.78
2017-07-19T03:44:21.702Z,16.71
2017-07-19T03:45:02.605Z,16.61
2017-07-19T03:45:43.489Z,16.71
2017-07-19T03:46:24.377Z,16.66
2017-07-19T03:47:05.276Z,16.68
2017-07-19T03:47:46.163Z,16.69
2017-07-19T03:48:27.050Z,16.66
2017-07-19T03:49:07.942Z,16.66
2017-07-19T03:49:48.844Z,16.64
2017-07-19T03:50:29.731Z,16.6
2017-07-19T03:51:10.627Z,16.74
2017-07-19T03:51:51.516Z,16.78
2017-07-19T03:52:32.399Z,16.75
2017-07-19T03:53:13.291Z,16.6
2017-07-19T03:53:54.171Z,16.72
2017-07-19T03:54:35.055Z,16.74
2017-07-19T03:55:15.933Z,16.75
2017-07-19T03:55:56.819Z,16.79
2017-07-19T03:56:37.723Z,16.81
2017-07-19T03:57:18.603Z,16.79
2017-07-19T03:57:59.494Z,16.68
2017-07-19T03:58:40.380Z,16.68
2017-07-19T03:59:21.267Z,16.74
2017-07-19T04:00:02.143Z,16.78
2017-07-19T04:00:43.028Z,16.74
2017-07-19T04:01:23.916Z,16.75
2017-07-19T04:02:04.814Z,16.79
2017-07-19T04:02:45.708Z,16.84
2017-07-19T04:03:26.596Z,16.83
2017-07-19T04:04:07.471Z,16.78
2017-07-19T04:04:48.350Z,16.83
2017-07-19T04:05:29.238Z,16.76
2017-07-19T04:06:10.127Z,16.84
2017-07-19T04:06:51.019Z,16.91
2017-07-19T04:07:31.884Z,16.89
2017-07-19T04:08:12.772Z,16.9
2017-07-19T04:08:53.668Z,16.86
2017-07-19T04:09:34.566Z,16.86
2017-07-19T04:10:15.492Z,16.84
2017-07-19T04:10:56.377Z,16.86
2017-07-19T04:11:37.289Z,16.86
2017-07-19T04:12:18.176Z,16.87
2017-07-19T04:12:59.062Z,16.9
2017-07-19T04:13:39.956Z,16.91
2017-07-19T04:14:20.843Z,16.86
2017-07-19T04:15:01.737Z,16.83
2017-07-19T04:15:42.629Z,16.87
2017-07-19T04:16:23.524Z,16.93
2017-07-19T04:17:04.423Z,16.89
2017-07-19T04:17:45.308Z,16.91
2017-07-19T04:18:26.198Z,17.02
2017-07-19T04:19:07.099Z,16.93
2017-07-19T04:19:47.990Z,16.97
2017-07-19T04:20:28.880Z,17.02
2017-07-19T04:21:09.782Z,17.09
2017-07-19T04:21:50.675Z,17.05
2017-07-19T04:22:31.554Z,16.97
2017-07-19T04:23:12.439Z,16.97
2017-07-19T04:23:53.332Z,17.06
2017-07-19T04:24:34.219Z,17.06
2017-07-19T04:25:15.159Z,17.04
2017-07-19T04:25:56.042Z,17.05
2017-07-19T04:26:36.931Z,17.04
2017-07-19T04:27:17.817Z,17.05
2017-07-19T04:27:58.712Z,17.2
2017-07-19T04:28:39.591Z,17.2
2017-07-19T04:29:20.493Z,17.19
2017-07-19T04:30:01.389Z,17.2
2017-07-19T04:30:42.272Z,17.15
2017-07-19T04:31:23.172Z,17.11
2017-07-19T04:32:04.066Z,17.15
2017-07-19T04:32:44.942Z,17.22
2017-07-19T04:33:25.834Z,17.3
2017-07-19T04:34:06.722Z,17.26
2017-07-19T04:34:47.608Z,17.26
2017-07-19T04:35:28.504Z,17.27
2017-07-19T04:36:09.395Z,17.24
2017-07-19T04:36:50.307Z,17.16
2017-07-19T04:37:31.185Z,17.24
2017-07-19T04:38:12.069Z,17.24
2017-07-19T04:38:52.978Z,17.31
2017-07-19T04:39:33.835Z,17.34
2017-07-19T04:40:14.719Z,17.27
2017-07-19T04:40:55.606Z,17.38
2017-07-19T04:41:36.509Z,17.41
2017-07-19T04:42:17.400Z,17.46
2017-07-19T04:42:58.303Z,17.39
2017-07-19T04:43:39.186Z,17.39
2017-07-19T04:44:20.092Z,17.42
2017-07-19T04:45:00.990Z,17.42
2017-07-19T04:45:41.908Z,17.38
2017-07-19T04:46:22.799Z,17.44
2017-07-19T04:47:03.683Z,17.42
2017-07-19T04:47:44.571Z,17.34
2017-07-19T04:48:25.474Z,17.33
2017-07-19T04:49:06.362Z,17.38
2017-07-19T04:49:47.260Z,17.46
2017-07-19T04:50:28.147Z,17.46
2017-07-19T04:51:09.020Z,17.52
2017-07-19T04:51:49.918Z,17.48
2017-07-19T04:52:30.803Z,17.48
2017-07-19T04:53:11.684Z,17.54
2017-07-19T04:53:52.568Z,17.59
2017-07-19T04:54:33.450Z,17.64
2017-07-19T04:55:14.339Z,17.6
2017-07-19T04:55:55.219Z,17.63
2017-07-19T04:56:36.105Z,17.63
2017-07-19T04:57:16.997Z,17.7
2017-07-19T04:57:57.891Z,17.63
2017-07-19T04:58:38.773Z,17.63
2017-07-19T04:59:19.666Z,17.68
2017-07-19T05:00:00.570Z,17.76
2017-07-19T05:00:41.454Z,17.71
2017-07-19T05:01:22.344Z,17.67
2017-07-19T05:02:03.242Z,17.72
2017-07-19T05:02:44.131Z,17.83
2017-07-19T05:03:25.053Z,17.85
2017-07-19T05:04:05.941Z,17.83
2017-07-19T05:04:46.835Z,17.86
2017-07-19T05:05:27.737Z,17.82
2017-07-19T05:06:08.614Z,17.86
2017-07-19T05:06:49.503Z,17.8
2017-07-19T05:07:30.400Z,17.76
2017-07-19T05:08:11.285Z,17.8
2017-07-19T05:08:52.181Z,17.78
2017-07-19T05:09:33.089Z,17.85
2017-07-19T05:10:13.970Z,17.89
2017-07-19T05:10:54.855Z,18.04
2017-07-19T05:11:35.758Z,17.95
2017-07-19T05:12:16.644Z,18.01
2017-07-19T05:12:57.538Z,18.01
2017-07-19T05:13:38.440Z,18.05
2017-07-19T05:14:19.338Z,17.97
2017-07-19T05:15:00.237Z,18.04
2017-07-19T05:15:41.128Z,17.97
2017-07-19T05:16:22.021Z,18.03
2017-07-19T05:17:02.932Z,17.95
2017-07-19T05:17:43.836Z,18.05
2017-07-19T05:18:24.753Z,18.11
2017-07-19T05:19:05.658Z,18.1
2017-07-19T05:19:46.565Z,18.11
2017-07-19T05:21:40.185Z,18.05
2017-07-19T05:22:21.082Z,18.2
2017-07-19T05:23:01.974Z,18.28
2017-07-19T05:23:42.858Z,18.08
2017-07-19T05:24:23.751Z,18.26
2017-07-19T05:25:04.637Z,18.25
2017-07-19T05:25:45.529Z,18.33
2017-07-19T05:26:26.427Z,18.22
2017-07-19T05:27:07.316Z,18.2
2017-07-19T05:27:48.202Z,18.03
2017-07-19T05:28:29.094Z,18.05
2017-07-19T05:29:09.975Z,18.15
2017-07-19T05:29:50.862Z,18.26
2017-07-19T05:30:31.747Z,18.25
2017-07-19T05:31:12.650Z,18.35
2017-07-19T05:31:53.541Z,18.26
2017-07-19T05:32:34.433Z,18.28
2017-07-19T05:33:15.325Z,18.35
2017-07-19T05:33:56.208Z,18.43
2017-07-19T05:34:37.094Z,18.38
2017-07-19T05:35:17.984Z,18.44
2017-07-19T05:35:58.880Z,18.29
2017-07-19T05:36:39.752Z,18.28
2017-07-19T05:37:20.651Z,18.45
2017-07-19T05:38:01.542Z,18.33
2017-07-19T05:38:42.436Z,18.45
2017-07-19T05:39:23.324Z,18.47
2017-07-19T05:40:04.213Z,18.5
2017-07-19T05:40:45.101Z,18.5
2017-07-19T05:41:25.982Z,18.55
2017-07-19T05:42:06.872Z,18.68
2017-07-19T05:42:47.769Z,18.75
2017-07-19T05:43:28.654Z,18.74
2017-07-19T05:44:09.556Z,18.78
2017-07-19T05:44:50.442Z,18.86
2017-07-19T05:45:31.330Z,18.81
2017-07-19T05:46:12.216Z,18.7
2017-07-19T05:46:53.109Z,18.77
2017-07-19T05:47:34.002Z,18.81
2017-07-19T05:48:14.890Z,18.77
2017-07-19T05:48:55.786Z,18.81
2017-07-19T05:49:36.681Z,18.83
2017-07-19T05:50:17.563Z,18.83
2017-07-19T05:50:58.453Z,18.86
2017-07-19T05:51:39.348Z,18.96
2017-07-19T05:52:20.264Z,18.95
2017-07-19T05:53:01.150Z,18.96
2017-07-19T05:53:42.032Z,18.89
2017-07-19T05:54:22.926Z,19.02
2017-07-19T05:55:03.827Z,19.08
2017-07-19T05:55:44.706Z,19.19
2017-07-19T05:56:25.592Z,19.21
2017-07-19T05:57:06.478Z,19.31
2017-07-19T05:57:47.382Z,19.26
2017-07-19T05:58:28.277Z,19.22
2017-07-19T05:59:09.158Z,19.29
2017-07-19T05:59:50.055Z,19.31
2017-07-19T06:00:30.951Z,19.37
2017-07-19T06:01:11.842Z,19.39
2017-07-19T06:01:52.725Z,19.44
2017-07-19T06:02:33.610Z,19.39
2017-07-19T06:03:14.511Z,19.41
2017-07-19T06:03:55.409Z,19.47
2017-07-19T06:04:36.300Z,19.49
2017-07-19T06:05:17.201Z,19.54
2017-07-19T06:05:58.083Z,19.66
2017-07-19T06:06:38.972Z,19.62
2017-07-19T06:07:19.861Z,19.69
2017-07-19T06:08:00.761Z,19.81
2017-07-19T06:08:41.675Z,19.85
2017-07-19T06:09:22.560Z,19.92
2017-07-19T06:10:03.451Z,19.86
2017-07-19T06:10:44.345Z,19.89
2017-07-19T06:11:25.232Z,19.88
2017-07-19T06:12:06.114Z,20.02
2017-07-19T06:12:47.023Z,20.02
2017-07-19T06:13:27.925Z,20.02
2017-07-19T06:14:08.814Z,19.88
2017-07-19T06:14:49.731Z,20.04
2017-07-19T06:15:30.607Z,20.18
2017-07-19T06:16:11.491Z,20.19
2017-07-19T06:16:52.379Z,20.41
2017-07-19T06:17:33.280Z,20.44
2017-07-19T06:18:14.178Z,20.62
2017-07-19T06:18:55.076Z,20.59
2017-07-19T06:19:35.957Z,20.72
2017-07-19T06:20:16.848Z,20.59
2017-07-19T06:20:57.763Z,20.58
2017-07-19T06:21:38.639Z,20.67
2017-07-19T06:22:19.539Z,20.63
2017-07-19T06:23:00.437Z,20.92
2017-07-19T06:23:41.318Z,20.96
2017-07-19T06:24:22.210Z,21.21
2017-07-19T06:25:03.106Z,21.22
2017-07-19T06:25:43.987Z,21.61
2017-07-19T06:26:24.888Z,21.77
2017-07-19T06:27:05.775Z,22.26
2017-07-19T06:27:46.667Z,22.78
2017-07-19T06:28:27.564Z,23.15
2017-07-19T06:29:08.450Z,23.13
2017-07-19T06:29:49.335Z,23.73
2017-07-19T06:30:30.218Z,24.3
2017-07-19T06:31:11.121Z,24.48
2017-07-19T06:31:52.019Z,24.85
2017-07-19T06:32:32.905Z,25.03
2017-07-19T06:33:13.835Z,25.1
2017-07-19T06:33:54.733Z,25.13
2017-07-19T06:34:35.631Z,25.5
2017-07-19T06:35:16.524Z,25.25
2017-07-19T06:35:57.424Z,25.63
2017-07-19T06:36:38.322Z,25.73
2017-07-19T06:37:19.227Z,25.78
2017-07-19T06:38:00.124Z,25.99
2017-07-19T06:38:41.021Z,26.43
2017-07-19T06:39:21.921Z,26.73
2017-07-19T06:40:02.820Z,26.6
2017-07-19T06:40:43.730Z,26.7
2017-07-19T06:41:24.639Z,27.22
2017-07-19T06:42:05.537Z,26.66
2017-07-19T06:42:46.441Z,27.25
2017-07-19T06:43:27.355Z,27.74
2017-07-19T06:44:08.252Z,27.87
2017-07-19T06:44:49.148Z,28.11
2017-07-19T06:45:30.089Z,28.39
2017-07-19T06:46:10.992Z,28.44
2017-07-19T06:46:51.899Z,27.73
2017-07-19T06:47:32.795Z,28.23
2017-07-19T06:48:13.694Z,27.55
2017-07-19T06:48:54.588Z,28
2017-07-19T06:49:35.494Z,28.64
2017-07-19T06:50:16.393Z,29.04
2017-07-19T06:50:57.292Z,29.02
2017-07-19T06:51:38.194Z,28.59
2017-07-19T06:52:19.085Z,28.86
2017-07-19T06:52:59.989Z,29.12
2017-07-19T06:53:40.890Z,29.51
2017-07-19T06:54:21.781Z,29.5
2017-07-19T06:55:02.696Z,29.69
2017-07-19T06:55:43.587Z,29.53
2017-07-19T06:56:24.494Z,29.79
2017-07-19T06:57:05.408Z,29.94
2017-07-19T06:57:46.436Z,30
2017-07-19T06:58:27.340Z,29.68
2017-07-19T06:59:08.246Z,29.32
2017-07-19T06:59:49.171Z,29.81
2017-07-19T07:00:30.081Z,29.94
2017-07-19T07:01:10.981Z,30.34
2017-07-19T07:01:51.904Z,29.93
2017-07-19T07:02:32.808Z,30.34
2017-07-19T07:03:13.704Z,30.53
2017-07-19T07:03:54.609Z,30.78
2017-07-19T07:04:35.517Z,30.94
2017-07-19T07:05:16.433Z,30.78
2017-07-19T07:05:57.332Z,30.85
2017-07-19T07:06:38.240Z,30.78
2017-07-19T07:07:19.144Z,30.63
2017-07-19T07:08:00.052Z,30.53
2017-07-19T07:08:40.954Z,30.62
2017-07-19T07:10:19.608Z,30.12
2017-07-19T07:11:00.543Z,30.37
2017-07-19T07:11:41.460Z,30.51
2017-07-19T07:12:22.373Z,29.98
2017-07-19T07:13:03.290Z,30.32
2017-07-19T07:13:44.202Z,29.63
2017-07-19T07:14:25.114Z,29.78
2017-07-19T07:15:06.020Z,30.15
2017-07-19T07:15:46.928Z,30.32
2017-07-19T07:16:27.835Z,30.46
2017-07-19T07:17:08.742Z,30.37
2017-07-19T07:17:49.650Z,30.03
2017-07-19T07:18:30.543Z,29.82
2017-07-19T07:19:11.448Z,29.95
2017-07-19T07:19:52.350Z,29.84
2017-07-19T07:20:33.259Z,29.53
2017-07-19T07:21:14.163Z,29.56
2017-07-19T07:21:55.063Z,29.72
2017-07-19T07:22:35.964Z,30.02
2017-07-19T07:23:16.873Z,30.35
2017-07-19T07:23:57.784Z,30.24
2017-07-19T07:24:38.723Z,29.93
2017-07-19T07:25:19.626Z,30.54
2017-07-19T07:26:00.538Z,30.97
2017-07-19T07:26:41.430Z,31.22
2017-07-19T07:27:22.333Z,31.42
2017-07-19T07:28:03.238Z,31.02
2017-07-19T07:28:44.150Z,30.8
2017-07-19T07:29:25.060Z,30.97
2017-07-19T07:30:05.942Z,30.51
2017-07-19T07:30:46.853Z,30.28
2017-07-19T07:31:27.750Z,30.5
2017-07-19T07:32:08.657Z,30.35
2017-07-19T07:32:49.574Z,30.78
2017-07-19T07:33:30.474Z,30.72
2017-07-19T07:34:11.381Z,29.84
2017-07-19T07:34:52.281Z,30.19
2017-07-19T07:35:33.196Z,30.68
2017-07-19T07:36:14.098Z,29.53
2017-07-19T07:36:55.008Z,30.21
2017-07-19T07:37:35.913Z,30.73
2017-07-19T07:38:16.829Z,30.1
2017-07-19T07:38:57.779Z,30.69
2017-07-19T07:39:38.639Z,31.06
2017-07-19T07:40:19.531Z,29.2
2017-07-19T07:41:00.440Z,29.95
2017-07-19T07:41:41.344Z,30.5
2017-07-19T07:42:22.257Z,29.93
2017-07-19T07:43:03.161Z,30.28
2017-07-19T07:43:44.080Z,30.61
2017-07-19T07:44:24.974Z,30.85
2017-07-19T07:45:05.879Z,31.12
2017-07-19T07:45:46.826Z,29.71
2017-07-19T07:46:27.738Z,29.9
2017-07-19T07:47:08.643Z,29.56
2017-07-19T07:47:49.548Z,30.02
2017-07-19T07:48:30.459Z,30.7
2017-07-19T07:49:11.365Z,31.1
2017-07-19T07:49:52.299Z,31.28
2017-07-19T07:50:33.185Z,30.88
2017-07-19T07:51:14.085Z,31.06
2017-07-19T07:51:55.014Z,31.31
2017-07-19T07:52:35.903Z,31.49
2017-07-19T07:53:16.820Z,31.44
2017-07-19T07:53:57.731Z,31.36
2017-07-19T07:54:38.634Z,31.49
2017-07-19T07:55:19.556Z,31.51
2017-07-19T07:56:00.463Z,30.57
2017-07-19T07:56:41.369Z,31.05
2017-07-19T07:57:22.299Z,31.39
2017-07-19T07:58:03.212Z,31.65
2017-07-19T07:58:44.120Z,32.12
2017-07-19T07:59:25.037Z,32.38
2017-07-19T08:00:05.951Z,32.4
2017-07-19T08:00:46.868Z,31.93
2017-07-19T08:01:27.781Z,31.29
2017-07-19T08:02:08.692Z,31.8
2017-07-19T08:02:49.602Z,31.93
2017-07-19T08:03:30.512Z,31.96
2017-07-19T08:04:11.416Z,32.15
2017-07-19T08:04:52.330Z,32.53
2017-07-19T08:05:33.240Z,32.68
2017-07-19T08:06:14.149Z,32.9
2017-07-19T08:06:55.056Z,33.08
2017-07-19T08:07:35.968Z,32.46
2017-07-19T08:08:16.874Z,31.49
2017-07-19T08:08:57.781Z,32.26
2017-07-19T08:09:38.692Z,30.34
2017-07-19T08:10:19.608Z,30.66
2017-07-19T08:11:00.525Z,31.29
2017-07-19T08:11:41.440Z,29.93
2017-07-19T08:12:22.360Z,30.46
2017-07-19T08:13:03.271Z,30.81
2017-07-19T08:13:44.181Z,31.07
2017-07-19T08:14:25.104Z,30.66
2017-07-19T08:15:06.034Z,29.53
2017-07-19T08:16:59.726Z,29.42
2017-07-19T08:17:40.639Z,30.31
2017-07-19T08:18:21.548Z,30.62
2017-07-19T08:19:02.459Z,31.15
2017-07-19T08:19:43.367Z,31.03
2017-07-19T08:20:24.308Z,28.93
2017-07-19T08:21:05.228Z,29.5
2017-07-19T08:21:46.140Z,30.1
2017-07-19T08:22:27.055Z,30.73
2017-07-19T08:23:07.971Z,31.12
2017-07-19T08:23:48.977Z,30.81
2017-07-19T08:24:29.930Z,30.47
2017-07-19T08:25:10.847Z,30.19
2017-07-19T08:25:51.765Z,29.68
2017-07-19T08:26:32.675Z,30.35
2017-07-19T08:27:13.592Z,30.96
2017-07-19T08:27:54.504Z,31.34
2017-07-19T08:28:35.415Z,31.89
2017-07-19T08:29:16.329Z,31.84
2017-07-19T08:29:57.242Z,32.15
2017-07-19T08:30:38.163Z,32.23
2017-07-19T08:31:19.070Z,32.46
2017-07-19T08:32:00.237Z,32.01
2017-07-19T08:32:41.146Z,32.29
2017-07-19T08:33:22.055Z,32.41
2017-07-19T08:34:02.977Z,31.33
2017-07-19T08:34:43.872Z,31.76
2017-07-19T08:35:24.792Z,32.11
2017-07-19T08:36:05.715Z,32.21
2017-07-19T08:36:46.630Z,32.48
2017-07-19T08:37:27.547Z,32.55
2017-07-19T08:38:08.458Z,32.49
2017-07-19T08:38:49.377Z,32.16
2017-07-19T08:39:30.290Z,31.84
2017-07-19T08:40:11.215Z,30.32
2017-07-19T08:40:52.128Z,29.78
2017-07-19T08:41:33.052Z,30.15
2017-07-19T08:42:14.030Z,31.1
2017-07-19T08:42:54.903Z,31.77
2017-07-19T08:43:35.814Z,32.27
2017-07-19T08:44:16.728Z,32.83
2017-07-19T08:44:57.648Z,32.92
2017-07-19T08:45:38.591Z,32.19
2017-07-19T08:46:19.467Z,32.78
2017-07-19T08:47:00.391Z,32.92
2017-07-19T08:47:41.295Z,32.97
2017-07-19T08:48:22.213Z,33.4
2017-07-19T08:49:03.120Z,32.95
2017-07-19T08:49:44.038Z,33.05
2017-07-19T08:50:24.957Z,32.21
2017-07-19T08:51:05.871Z,33.04
2017-07-19T08:51:46.783Z,33.43
2017-07-19T08:52:27.723Z,33.89
2017-07-19T08:53:08.647Z,34.24